Tom Frazier — WDD4376 — position and weather

sailwx.info

Track history (hours):
 
Tides and Currents Weather Stations Pressure Air Temp Water Temp Dewpoint Dewpoint Depression Visibility Wind Speed Wind Dir Waves Ship Positions

Tom Frazier

Owner: American Commercial Lines LLC, Jeffersonville, IN. More information available from US FCC via Universal Licensing System and Coast Guard Vessel Documentation Center.

Last reported at 2018-May-23 17:52 UTC. Time now 2018-May-23 18:26 UTC.
Position N 32°08' W 091°06'.

Length 48 m; draft 2.9 m.

Type: Towing. MMSI: 367143910.

Date/timePositionNaut miles runAvg speedWind from/ knotsBaromVisibWave heightAir tempDewpointWater temp
2018-May-23 17:52N 32°08' W 091°06'1 4.2
2018-May-23 17:31N 32°07' W 091°06'2 2.8
2018-May-23 16:41N 32°05' W 091°04'1 4.5
2018-May-23 16:26N 32°04' W 091°04'2 4.5
2018-May-23 16:00N 32°02' W 091°04'1 2.7
2018-May-23 15:30N 32°01' W 091°05'6 4.0
2018-May-23 14:08N 31°59' W 091°11'1 4.4
2018-May-23 13:57N 31°58' W 091°11'4 4.7
2018-May-23 13:12N 31°55' W 091°12'2 4.8
2018-May-23 12:41N 31°53' W 091°14'5 3.9
2018-May-23 11:24N 31°51' W 091°20'2 4.2
2018-May-23 11:00N 31°50' W 091°21'5 4.5
2018-May-23 10:00N 31°46' W 091°22'2 4.6
2018-May-23 09:28N 31°43' W 091°23'  
2018-May-18 18:25N 31°57' W 091°11'4 7.4
2018-May-18 17:52N 31°59' W 091°07'3 8.0
2018-May-18 17:30N 32°01' W 091°04'5 7.0
2018-May-18 16:46N 32°06' W 091°06'2 6.7
2018-May-18 16:30N 32°08' W 091°06'4 8.4
2018-May-18 16:00N 32°07' W 091°01'4 8.1
2018-May-18 15:30N 32°11' W 090°60'4 8.3
2018-May-18 15:00N 32°15' W 090°59'4 8.2
2018-May-18 14:29N 32°18' W 090°55'3 5.7
2018-May-18 14:00N 32°21' W 090°56'4 7.7
2018-May-18 13:30N 32°22' W 091°00'4 7.3
2018-May-18 13:00N 32°25' W 091°01'4 8.3
2018-May-18 12:30N 32°27' W 091°05'4 7.6
2018-May-18 12:00N 32°31' W 091°07'4 7.5
2018-May-18 11:30N 32°34' W 091°07'4 7.9
2018-May-18 11:00N 32°38' W 091°09'7 7.6
2018-May-18 10:03N 32°43' W 091°03'0 6.9
2018-May-18 10:00N 32°43' W 091°03'4 7.8
2018-May-18 09:30N 32°44' W 091°08'  
Track history (hours):
 
Tides and Currents Weather Stations Pressure Air Temp Water Temp Dewpoint Dewpoint Depression Visibility Wind Speed Wind Dir Waves Ship Positions

Tom Frazier

Owner: American Commercial Lines LLC, Jeffersonville, IN. More information available from US FCC via Universal Licensing System and Coast Guard Vessel Documentation Center.

Last reported at 2018-May-23 17:52 UTC. Time now 2018-May-23 18:26 UTC.
Position N 32°08' W 091°06'.

Length 48 m; draft 2.9 m.

Type: Towing. MMSI: 367143910.

Date/timePositionNaut miles runAvg speedWind from/ knotsBaromVisibWave heightAir tempDewpointWater temp
2018-May-23 17:52N 32°08' W 091°06'1 4.2
2018-May-23 17:31N 32°07' W 091°06'2 2.8
2018-May-23 16:41N 32°05' W 091°04'1 4.5
2018-May-23 16:26N 32°04' W 091°04'2 4.5
2018-May-23 16:00N 32°02' W 091°04'1 2.7
2018-May-23 15:30N 32°01' W 091°05'6 4.0
2018-May-23 14:08N 31°59' W 091°11'1 4.4
2018-May-23 13:57N 31°58' W 091°11'4 4.7
2018-May-23 13:12N 31°55' W 091°12'2 4.8
2018-May-23 12:41N 31°53' W 091°14'5 3.9
2018-May-23 11:24N 31°51' W 091°20'2 4.2
2018-May-23 11:00N 31°50' W 091°21'5 4.5
2018-May-23 10:00N 31°46' W 091°22'2 4.6
2018-May-23 09:28N 31°43' W 091°23'  
2018-May-18 18:25N 31°57' W 091°11'4 7.4
2018-May-18 17:52N 31°59' W 091°07'3 8.0
2018-May-18 17:30N 32°01' W 091°04'5 7.0
2018-May-18 16:46N 32°06' W 091°06'2 6.7
2018-May-18 16:30N 32°08' W 091°06'4 8.4
2018-May-18 16:00N 32°07' W 091°01'4 8.1
2018-May-18 15:30N 32°11' W 090°60'4 8.3
2018-May-18 15:00N 32°15' W 090°59'4 8.2
2018-May-18 14:29N 32°18' W 090°55'3 5.7
2018-May-18 14:00N 32°21' W 090°56'4 7.7
2018-May-18 13:30N 32°22' W 091°00'4 7.3
2018-May-18 13:00N 32°25' W 091°01'4 8.3
2018-May-18 12:30N 32°27' W 091°05'4 7.6
2018-May-18 12:00N 32°31' W 091°07'4 7.5
2018-May-18 11:30N 32°34' W 091°07'4 7.9
2018-May-18 11:00N 32°38' W 091°09'7 7.6
2018-May-18 10:03N 32°43' W 091°03'0 6.9
2018-May-18 10:00N 32°43' W 091°03'4 7.8
2018-May-18 09:30N 32°44' W 091°08'  

Dump ship's entire track history